createdAt,value
2022-09-16T00:03:22.339Z,99287.38
2022-09-16T00:08:26.346Z,99298.59
2022-09-16T00:13:28.041Z,99295.03
2022-09-16T00:18:29.685Z,99282.41
2022-09-16T00:23:31.205Z,99292.75
2022-09-16T00:28:32.983Z,99301.50
2022-09-16T00:33:34.576Z,99301.25
2022-09-16T00:38:36.638Z,99301.88
2022-09-16T00:43:54.810Z,99297.31
2022-09-16T00:48:57.608Z,99298.13
2022-09-16T00:54:03.188Z,99306.81
2022-09-16T00:59:33.208Z,99312.22
2022-09-16T01:18:22.042Z,99304.38
2022-09-16T01:23:37.107Z,99307.88
2022-09-16T01:29:18.568Z,99317.00
2022-09-16T01:34:37.626Z,99305.81
2022-09-16T01:40:08.600Z,99324.25
2022-09-16T01:45:20.596Z,99313.28
2022-09-16T01:50:32.703Z,99319.28
2022-09-16T01:55:38.686Z,99318.47
2022-09-16T02:00:42.540Z,99317.25
2022-09-16T02:05:52.706Z,99324.28
2022-09-16T02:10:58.952Z,99328.44
2022-09-16T02:16:05.944Z,99324.69
2022-09-16T02:21:11.099Z,99326.13
2022-09-16T02:26:15.979Z,99322.59
2022-09-16T02:31:20.693Z,99322.41
2022-09-16T02:50:12.408Z,99314.66
2022-09-16T02:55:26.948Z,99318.44
2022-09-16T03:00:29.662Z,99317.59
2022-09-16T03:05:31.594Z,99321.38
2022-09-16T03:10:40.179Z,99315.72
2022-09-16T03:15:51.782Z,99314.66
2022-09-16T03:21:03.963Z,99307.81
2022-09-16T03:26:20.798Z,99310.09
2022-09-16T03:31:32.157Z,99310.16
2022-09-16T03:36:37.731Z,99314.88
2022-09-16T03:41:40.323Z,99308.88
2022-09-16T03:46:43.062Z,99303.06
2022-09-16T03:51:45.948Z,99299.13
2022-09-16T03:56:47.625Z,99303.72
2022-09-16T04:01:49.239Z,99309.72
2022-09-16T04:06:50.806Z,99307.84
2022-09-16T04:11:52.298Z,99299.78
2022-09-16T04:16:54.723Z,99302.69
2022-09-16T04:21:56.327Z,99296.00
2022-09-16T04:26:58.230Z,99296.84
2022-09-16T04:31:59.823Z,99306.81
2022-09-16T04:37:01.616Z,99301.41
2022-09-16T04:42:05.502Z,99302.66
2022-09-16T04:47:07.119Z,99309.72
2022-09-16T04:52:08.656Z,99323.44
2022-09-16T04:57:10.229Z,99319.28
2022-09-16T05:02:11.827Z,99318.22
2022-09-16T05:07:13.884Z,99319.69
2022-09-16T05:12:15.880Z,99316.78
2022-09-16T05:17:39.566Z,99323.41
2022-09-16T05:22:39.268Z,99328.78
2022-09-16T05:27:40.826Z,99325.91
2022-09-16T05:32:42.324Z,99330.09
2022-09-16T05:37:43.926Z,99334.22
2022-09-16T05:42:48.964Z,99328.81
2022-09-16T05:47:51.445Z,99319.28
2022-09-16T05:52:52.981Z,99314.75
2022-09-16T05:57:54.532Z,99330.63
2022-09-16T06:02:56.075Z,99323.38
2022-09-16T06:07:57.641Z,99324.84
2022-09-16T06:12:59.566Z,99327.59
2022-09-16T06:18:06.140Z,99330.47
2022-09-16T06:23:08.108Z,99326.75
2022-09-16T06:28:11.455Z,99325.34
2022-09-16T06:33:13.075Z,99327.03
2022-09-16T06:38:14.662Z,99325.81
2022-09-16T06:43:16.766Z,99324.78
2022-09-16T06:48:18.331Z,99329.34
2022-09-16T06:53:20.004Z,99338.47
2022-09-16T06:58:21.635Z,99337.66
2022-09-16T07:03:23.302Z,99327.47
2022-09-16T07:08:25.211Z,99330.41
2022-09-16T07:13:27.483Z,99328.31
2022-09-16T07:18:30.267Z,99327.50
2022-09-16T07:23:32.675Z,99334.97
2022-09-16T07:28:34.936Z,99341.81
2022-09-16T07:33:39.481Z,99342.22
2022-09-16T07:38:41.051Z,99342.22
2022-09-16T07:43:43.250Z,99346.38
2022-09-16T07:48:45.811Z,99344.31
2022-09-16T07:53:47.504Z,99341.38
2022-09-16T07:58:49.262Z,99341.41
2022-09-16T08:03:51.046Z,99339.72
2022-09-16T08:08:54.829Z,99341.19
2022-09-16T08:13:58.948Z,99339.69
2022-09-16T08:19:00.532Z,99333.91
2022-09-16T08:24:02.110Z,99330.38
2022-09-16T08:29:08.836Z,99334.50
2022-09-16T08:34:11.165Z,99330.50
2022-09-16T08:39:12.768Z,99329.88
2022-09-16T08:44:36.372Z,99331.34
2022-09-16T08:49:43.932Z,99330.97
2022-09-16T08:54:57.722Z,99334.91
2022-09-16T09:00:07.868Z,99333.00
2022-09-16T09:05:17.020Z,99333.44
2022-09-16T09:10:46.416Z,99339.84
2022-09-16T09:16:01.071Z,99334.50
2022-09-16T09:21:27.168Z,99340.09
2022-09-16T09:26:51.994Z,99341.31
2022-09-16T09:32:17.184Z,99333.22
2022-09-16T09:37:47.022Z,99331.53
2022-09-16T09:42:57.001Z,99318.91
2022-09-16T09:48:21.859Z,99311.38
2022-09-16T09:53:53.911Z,99302.16
2022-09-16T09:59:32.803Z,99304.22
2022-09-16T10:04:38.269Z,99308.66
2022-09-16T10:09:48.522Z,99300.50
2022-09-16T10:14:50.125Z,99299.72
2022-09-16T10:20:05.826Z,99296.56
2022-09-16T10:25:24.395Z,99301.78
2022-09-16T10:30:28.026Z,99310.69
2022-09-16T10:35:31.767Z,99311.09
2022-09-16T10:40:34.069Z,99316.91
2022-09-16T10:45:37.202Z,99312.72
2022-09-16T10:50:38.758Z,99305.06
2022-09-16T10:55:40.348Z,99315.44
2022-09-16T11:00:55.738Z,99307.72
2022-09-16T11:06:00.354Z,99315.59
2022-09-16T11:11:11.883Z,99308.97
2022-09-16T11:16:20.677Z,99301.84
2022-09-16T11:21:43.559Z,99302.72
2022-09-16T11:27:03.576Z,99304.78
2022-09-16T11:32:14.148Z,99301.09
2022-09-16T11:37:36.149Z,99295.69
2022-09-16T11:42:55.849Z,99301.69
2022-09-16T11:48:34.158Z,99287.16
2022-09-16T11:53:44.094Z,99283.41
2022-09-16T11:58:54.163Z,99271.97
2022-09-16T12:04:04.720Z,99275.94
2022-09-16T12:09:12.494Z,99269.50
2022-09-16T12:14:27.661Z,99254.13
2022-09-16T12:19:39.039Z,99253.00
2022-09-16T12:24:48.456Z,99254.16
2022-09-16T12:30:02.170Z,99246.84
2022-09-16T12:35:12.315Z,99241.44
2022-09-16T12:40:21.263Z,99231.50
2022-09-16T12:45:43.162Z,99217.31
2022-09-16T12:50:54.594Z,99217.31
2022-09-16T12:56:14.835Z,99216.50
2022-09-16T13:01:24.262Z,99208.47
2022-09-16T13:06:33.292Z,99211.69
2022-09-16T13:16:58.291Z,99206.53
2022-09-16T13:22:17.469Z,99187.78
2022-09-16T13:27:23.928Z,99183.88
2022-09-16T13:32:26.624Z,99181.41
2022-09-16T13:37:28.414Z,99173.16
2022-09-16T13:42:29.918Z,99183.72
2022-09-16T13:47:34.292Z,99167.03
2022-09-16T13:52:36.433Z,99165.03
2022-09-16T13:57:48.477Z,99176.53
2022-09-16T14:03:08.636Z,99203.94
2022-09-16T14:08:21.884Z,99202.88
2022-09-16T14:13:24.676Z,99202.19
2022-09-16T14:18:32.686Z,99194.03
2022-09-16T14:23:34.222Z,99183.06
2022-09-16T14:28:38.705Z,99184.72
2022-09-16T14:33:44.725Z,99193.69
2022-09-16T14:38:55.238Z,99190.41
2022-09-16T14:44:23.236Z,99180.53
2022-09-16T14:49:24.902Z,99177.16
2022-09-16T14:54:27.328Z,99165.94
2022-09-16T14:59:37.645Z,99174.50
2022-09-16T15:04:40.943Z,99168.91
2022-09-16T15:09:56.728Z,99159.13
2022-09-16T15:14:58.445Z,99154.97
2022-09-16T15:20:00.120Z,99158.94
2022-09-16T15:25:02.087Z,99150.25
2022-09-16T15:30:05.893Z,99149.81
2022-09-16T15:35:23.564Z,99153.56
2022-09-16T15:40:27.941Z,99158.72
2022-09-16T15:45:29.728Z,99152.06
2022-09-16T15:50:40.150Z,99157.28
2022-09-16T15:56:04.731Z,99161.44
2022-09-16T16:01:13.791Z,99153.16
2022-09-16T16:06:15.793Z,99159.75
2022-09-16T16:11:19.429Z,99169.38
2022-09-16T16:16:21.567Z,99175.41
2022-09-16T16:21:23.185Z,99176.88
2022-09-16T16:26:24.817Z,99171.13
2022-09-16T16:31:26.468Z,99171.31
2022-09-16T16:36:28.078Z,99170.94
2022-09-16T16:41:29.636Z,99170.94
2022-09-16T16:46:31.244Z,99167.84
2022-09-16T16:51:32.995Z,99163.88
2022-09-16T16:56:34.586Z,99167.44
2022-09-16T17:01:37.239Z,99172.84
2022-09-16T17:06:40.070Z,99173.69
2022-09-16T17:11:57.076Z,99163.28
2022-09-16T17:16:59.038Z,99165.78
2022-09-16T17:22:00.634Z,99175.78
2022-09-16T17:27:02.189Z,99172.47
2022-09-16T17:32:03.740Z,99158.78
2022-09-16T17:37:08.330Z,99168.09
2022-09-16T17:42:09.950Z,99173.72
2022-09-16T17:47:11.980Z,99168.53
2022-09-16T17:52:13.554Z,99183.03
2022-09-16T17:57:15.103Z,99178.69
2022-09-16T18:02:16.817Z,99178.28
2022-09-16T18:07:18.516Z,99182.22
2022-09-16T18:12:20.219Z,99182.44
2022-09-16T18:17:21.830Z,99186.97
2022-09-16T18:22:23.646Z,99186.53
2022-09-16T18:27:25.594Z,99181.59
2022-09-16T18:32:29.841Z,99186.16
2022-09-16T18:37:31.582Z,99184.88
2022-09-16T18:42:34.445Z,99191.94
2022-09-16T18:47:36.057Z,99192.16
2022-09-16T18:52:37.708Z,99185.72
2022-09-16T18:57:39.552Z,99190.28
2022-09-16T19:02:43.205Z,99183.41
2022-09-16T19:07:44.785Z,99183.84
2022-09-16T19:12:46.406Z,99189.88
2022-09-16T19:17:48.023Z,99194.41
2022-09-16T19:22:49.705Z,99197.69
2022-09-16T19:27:51.330Z,99199.81
2022-09-16T19:32:52.952Z,99209.72
2022-09-16T19:37:54.829Z,99207.44
2022-09-16T19:42:56.452Z,99206.59
2022-09-16T19:47:58.073Z,99217.22
2022-09-16T19:52:59.691Z,99215.75
2022-09-16T19:58:02.663Z,99215.34
2022-09-16T20:03:04.430Z,99204.75
2022-09-16T20:08:05.955Z,99208.47
2022-09-16T20:13:07.636Z,99200.63
2022-09-16T20:18:09.145Z,99202.66
2022-09-16T20:23:10.721Z,99214.75
2022-09-16T20:28:12.253Z,99201.66
2022-09-16T20:33:13.794Z,99196.03
2022-09-16T20:38:15.342Z,99193.97
2022-09-16T20:43:17.776Z,99192.28
2022-09-16T20:48:19.266Z,99193.13
2022-09-16T20:53:20.835Z,99191.53
2022-09-16T20:58:22.350Z,99186.41
2022-09-16T21:03:23.850Z,99192.44
2022-09-16T21:08:25.421Z,99192.81
2022-09-16T21:13:27.278Z,99195.59
2022-09-16T21:18:29.281Z,99193.00
2022-09-16T21:23:32.150Z,99198.03
2022-09-16T21:28:34.243Z,99195.69
2022-09-16T21:33:37.518Z,99199.88
2022-09-16T21:38:40.301Z,99207.88
2022-09-16T21:43:49.559Z,99202.91
2022-09-16T21:48:51.692Z,99200.03
2022-09-16T21:53:53.301Z,99203.75
2022-09-16T21:58:55.708Z,99206.63
2022-09-16T22:03:59.833Z,99206.16
2022-09-16T22:09:03.780Z,99212.41
2022-09-16T22:14:05.376Z,99197.91
2022-09-16T22:19:15.925Z,99207.38
2022-09-16T22:24:20.288Z,99211.09
2022-09-16T22:29:23.690Z,99201.91
2022-09-16T22:34:25.247Z,99192.44
2022-09-16T22:39:26.752Z,99185.38
2022-09-16T22:44:28.352Z,99183.72
2022-09-16T22:49:29.860Z,99174.44
2022-09-16T22:54:31.368Z,99183.63
2022-09-16T22:59:32.865Z,99185.16
2022-09-16T23:04:35.454Z,99187.38
2022-09-16T23:09:37.473Z,99184.69
2022-09-16T23:14:38.979Z,99179.06
2022-09-16T23:19:40.675Z,99177.88
2022-09-16T23:24:42.304Z,99178.72
2022-09-16T23:29:43.811Z,99169.63
2022-09-16T23:34:45.337Z,99172.28
2022-09-16T23:39:46.873Z,99176.63
2022-09-16T23:44:48.386Z,99176.84
2022-09-16T23:49:50.090Z,99177.41
2022-09-16T23:54:51.635Z,99168.19
2022-09-16T23:59:53.166Z,99162.91
